Aragon, Georgia
Current Conditions -  °F | °C
As of 12:15 PM on Friday 28 Nov 2014 (Local Time) from KPUJ Reporting Station
Clear Clear  
Wind Chill: 41°   Ceiling: Unl
Heat Index: 41°   Visibility: 10mi
Dew Point: 25°   Wind: 0mph
Humidity: 53%   Direction: NA
Pressure: 30.37"   Gusts: NA
Location:  34.05°N, 85.06°W
Report Text: KPUJ 281715Z AUTO 00000KT 10SM CLR 05/M04 A3037 RMK AO2
Loading
Personal Weather Stations






























Interactive Weather Map New forecast layout! Learn more

10-Day Weather Forecast

Advertisements
Track Severe Weather on mobile